Time;durP1;ratioP1;P1;durP2;ratioP2;P2;SDS_P1;SDS_P2;PMS_P1;PMS_P2;Temp;Humidity;BMP_temperature;BMP_pressure;BME280_temperature;BME280_humidity;BME280_pressure;Samples;Min_cycle;Max_cycle;Signal;HPM_P1;HPM_P2
2021/12/06 00:02:09;;;;;;;7.20;3.87;;;4.50;99.90;;;;;;6723319;88;20200;-77
2021/12/06 00:12:11;;;;;;;8.02;3.92;;;4.60;99.90;;;;;;6718014;88;20218;-77
2021/12/06 00:22:15;;;;;;;7.82;3.80;;;4.30;99.90;;;;;;6729534;88;20677;-76
2021/12/06 00:32:16;;;;;;;8.52;4.28;;;4.20;99.90;;;;;;6733737;88;20226;-75
2021/12/06 00:42:18;;;;;;;7.28;4.28;;;4.00;99.90;;;;;;6734612;88;20199;-76
2021/12/06 00:52:21;;;;;;;8.85;4.22;;;4.00;99.90;;;;;;6719225;88;20214;-76
2021/12/06 01:02:21;;;;;;;9.13;4.55;;;3.80;99.90;;;;;;6717027;88;20643;-76
2021/12/06 01:12:22;;;;;;;8.90;4.53;;;3.50;99.90;;;;;;6715928;88;20296;-76
2021/12/06 01:22:29;;;;;;;7.35;4.47;;;3.20;99.90;;;;;;6717653;88;20324;-76
2021/12/06 01:42:30;;;;;;;10.00;5.10;;;2.90;99.90;;;;;;6727479;88;20666;-77
2021/12/06 01:52:34;;;;;;;9.60;4.97;;;2.80;99.90;;;;;;6734441;88;20181;-77
2021/12/06 02:02:35;;;;;;;7.55;4.50;;;2.60;99.90;;;;;;6733568;88;20235;-76
2021/12/06 02:12:36;;;;;;;9.37;5.23;;;2.80;99.90;;;;;;6719726;88;20197;-76
2021/12/06 02:22:38;;;;;;;10.23;5.32;;;2.80;99.90;;;;;;6716857;88;20521;-76
2021/12/06 02:32:39;;;;;;;8.10;4.60;;;2.90;99.90;;;;;;6726957;88;20311;-77
2021/12/06 02:42:41;;;;;;;8.85;5.10;;;2.60;99.90;;;;;;6734010;88;20582;-76
2021/12/06 02:52:42;;;;;;;9.43;5.15;;;2.30;99.90;;;;;;6735729;88;20311;-77
2021/12/06 03:02:42;;;;;;;8.98;4.82;;;2.30;99.90;;;;;;6737619;88;20246;-76
2021/12/06 03:12:43;;;;;;;9.68;5.07;;;2.20;99.90;;;;;;6735405;88;20717;-77
2021/12/06 03:22:44;;;;;;;9.65;6.05;;;1.80;99.90;;;;;;6733013;88;21084;-76
2021/12/06 03:32:45;;;;;;;12.65;6.03;;;1.60;99.90;;;;;;6733809;88;20375;-77
2021/12/06 03:42:45;;;;;;;12.25;6.65;;;1.60;99.90;;;;;;6733543;88;20216;-77
2021/12/06 03:52:46;;;;;;;12.93;6.97;;;1.40;99.90;;;;;;6733097;88;20254;-76
2021/12/06 04:02:47;;;;;;;12.02;6.85;;;1.60;99.90;;;;;;6734400;88;20204;-77
2021/12/06 04:12:47;;;;;;;13.68;8.13;;;1.50;99.90;;;;;;6722903;88;20211;-76
2021/12/06 04:22:48;;;;;;;14.27;8.77;;;1.60;99.90;;;;;;6733000;88;20215;-76
2021/12/06 04:32:50;;;;;;;16.02;8.88;;;1.30;99.90;;;;;;6733462;88;20527;-77
2021/12/06 04:42:51;;;;;;;15.98;9.30;;;1.60;99.90;;;;;;6732641;88;22272;-79
2021/12/06 04:52:54;;;;;;;14.32;8.48;;;1.20;99.90;;;;;;6716039;88;20212;-77
2021/12/06 05:02:55;;;;;;;18.67;9.43;;;1.40;99.90;;;;;;6715068;88;20218;-75
2021/12/06 05:12:56;;;;;;;21.77;10.43;;;1.10;99.90;;;;;;6715764;88;20641;-77
2021/12/06 05:22:57;;;;;;;22.80;11.05;;;1.00;99.90;;;;;;6715187;88;20618;-76
2021/12/06 05:32:59;;;;;;;21.20;10.60;;;1.00;99.90;;;;;;6717882;88;20234;-75
2021/12/06 05:43:01;;;;;;;24.20;11.18;;;0.80;99.90;;;;;;6711175;77;20660;-74
2021/12/06 05:53:03;;;;;;;20.45;10.68;;;1.00;99.90;;;;;;6701418;88;20208;-74
2021/12/06 06:03:05;;;;;;;23.10;10.52;;;1.10;99.90;;;;;;6700312;88;20218;-75
2021/12/06 06:13:08;;;;;;;22.77;10.82;;;1.20;99.90;;;;;;6697974;88;20561;-75
2021/12/06 06:23:08;;;;;;;22.87;11.07;;;1.20;99.90;;;;;;6704685;88;20192;-74
2021/12/06 06:33:09;;;;;;;22.27;10.87;;;1.20;99.90;;;;;;6705189;88;20585;-74
2021/12/06 06:43:10;;;;;;;24.33;11.23;;;1.20;99.90;;;;;;6698071;88;20517;-75
2021/12/06 06:53:11;;;;;;;19.67;9.93;;;1.20;99.90;;;;;;6698612;88;20260;-75
2021/12/06 07:03:11;;;;;;;18.75;9.65;;;1.50;99.90;;;;;;6700405;88;20195;-76
2021/12/06 07:13:14;;;;;;;20.33;10.02;;;1.60;99.90;;;;;;6700553;88;20249;-75
2021/12/06 07:23:14;;;;;;;20.92;10.48;;;1.90;99.90;;;;;;6700637;88;20170;-76
2021/12/06 07:33:15;;;;;;;18.52;10.00;;;2.00;99.90;;;;;;6704053;88;20681;-74
2021/12/06 07:43:17;;;;;;;21.33;10.68;;;2.00;99.90;;;;;;6699693;88;20218;-74
2021/12/06 07:53:17;;;;;;;18.37;10.10;;;1.90;99.90;;;;;;6699289;88;20676;-75
2021/12/06 08:03:21;;;;;;;18.05;9.40;;;1.90;99.90;;;;;;6699512;88;20201;-74
2021/12/06 08:13:25;;;;;;;18.02;9.25;;;2.00;99.90;;;;;;6699195;88;20173;-74
2021/12/06 08:23:26;;;;;;;19.15;8.75;;;2.30;99.90;;;;;;6694166;88;20712;-75
2021/12/06 08:33:27;;;;;;;13.30;7.53;;;2.50;99.90;;;;;;6699930;88;20182;-76
2021/12/06 08:43:28;;;;;;;12.27;6.62;;;2.70;99.90;;;;;;6702164;88;20189;-75
2021/12/06 08:53:29;;;;;;;14.10;6.97;;;2.90;99.90;;;;;;6701592;88;20190;-75
2021/12/06 09:03:30;;;;;;;12.82;6.80;;;3.20;99.90;;;;;;6699748;88;20613;-74
2021/12/06 09:13:31;;;;;;;12.50;6.70;;;3.50;99.90;;;;;;6699963;88;20211;-75
2021/12/06 09:23:33;;;;;;;14.13;7.93;;;3.50;99.90;;;;;;6699593;88;20250;-76
2021/12/06 09:33:35;;;;;;;16.17;8.27;;;3.80;99.90;;;;;;6700282;88;20209;-75
2021/12/06 09:43:39;;;;;;;14.23;7.40;;;4.70;99.90;;;;;;6702124;88;20272;-73
2021/12/06 09:53:42;;;;;;;17.12;8.70;;;4.60;99.90;;;;;;6702268;88;20772;-75
2021/12/06 10:03:46;;;;;;;13.60;7.78;;;4.60;99.90;;;;;;6700901;88;20769;-75
2021/12/06 10:13:48;;;;;;;15.02;7.57;;;4.80;99.90;;;;;;6701041;88;20260;-75
2021/12/06 10:23:48;;;;;;;14.90;7.15;;;5.20;99.90;;;;;;6700778;88;20361;-74
2021/12/06 10:33:50;;;;;;;11.63;6.20;;;5.70;99.90;;;;;;6699614;88;20206;-74
2021/12/06 10:43:54;;;;;;;10.48;5.40;;;6.80;99.90;;;;;;6702740;88;20194;-74
2021/12/06 10:54:02;;;;;;;10.63;5.68;;;7.00;99.90;;;;;;6716004;88;20189;-74
2021/12/06 11:04:06;;;;;;;8.80;5.32;;;6.70;99.90;;;;;;6702031;88;20539;-74
2021/12/06 11:14:11;;;;;;;9.50;5.60;;;7.60;99.90;;;;;;6696030;88;20210;-75
2021/12/06 11:24:25;;;;;;;10.13;5.50;;;7.50;99.90;;;;;;6700957;88;20178;-75
2021/12/06 11:34:49;;;;;;;10.57;5.55;;;7.30;99.90;;;;;;6691592;88;20307;-74
2021/12/06 11:44:49;;;;;;;7.90;4.22;;;7.30;99.90;;;;;;6705839;77;20378;-77
2021/12/06 11:54:56;;;;;;;6.15;3.67;;;8.50;99.90;;;;;;6689066;88;20183;-76
2021/12/06 12:05:36;;;;;;;7.57;3.30;;;9.20;99.90;;;;;;6688102;88;20219;-77
2021/12/06 12:15:38;;;;;;;2.80;1.30;;;9.80;99.90;;;;;;6694280;88;20671;-76
2021/12/06 12:25:53;;;;;;;3.20;1.48;;;9.50;99.90;;;;;;6691226;88;20214;-76
2021/12/06 12:36:01;;;;;;;3.25;1.67;;;9.00;99.90;;;;;;6683851;88;20205;-76
2021/12/06 12:46:15;;;;;;;2.25;1.20;;;10.50;99.90;;;;;;6686761;88;20211;-76
2021/12/06 12:56:20;;;;;;;2.45;1.27;;;10.40;99.90;;;;;;6692890;88;20216;-76
2021/12/06 13:06:30;;;;;;;3.50;1.40;;;9.80;99.90;;;;;;6684213;88;20580;-76
2021/12/06 13:16:45;;;;;;;2.90;1.37;;;11.20;99.90;;;;;;6693908;88;20189;-77
2021/12/06 13:26:49;;;;;;;2.80;1.65;;;11.00;99.90;;;;;;6681986;88;20178;-76
2021/12/06 13:36:59;;;;;;;4.00;1.65;;;10.00;99.90;;;;;;6688187;88;20238;-76
2021/12/06 13:47:14;;;;;;;2.53;1.40;;;9.40;99.90;;;;;;6685148;88;20190;-76
2021/12/06 13:57:16;;;;;;;4.80;1.60;;;8.00;99.90;;;;;;6690331;88;20653;-76
2021/12/06 14:07:23;;;;;;;3.55;1.37;;;8.00;99.90;;;;;;6701635;88;20235;-77
2021/12/06 14:17:24;;;;;;;3.25;1.27;;;6.60;99.90;;;;;;6687131;88;20276;-76
2021/12/06 14:27:28;;;;;;;3.25;1.30;;;6.00;99.90;;;;;;6688899;88;20340;-76
2021/12/06 14:37:29;;;;;;;3.42;1.17;;;5.70;99.90;;;;;;6693532;88;20186;-76
2021/12/06 14:47:37;;;;;;;2.47;1.42;;;5.60;99.90;;;;;;6702115;88;20598;-75
2021/12/06 14:57:38;;;;;;;3.97;1.40;;;5.30;99.90;;;;;;6692308;88;20654;-76
2021/12/06 15:07:38;;;;;;;2.65;1.40;;;5.20;99.90;;;;;;6709498;88;20264;-76
2021/12/06 15:17:42;;;;;;;3.03;1.40;;;5.00;99.90;;;;;;6695530;88;20290;-76
2021/12/06 15:27:42;;;;;;;2.53;1.15;;;4.80;99.90;;;;;;6680270;88;20687;-76
2021/12/06 15:37:43;;;;;;;2.83;1.35;;;4.50;99.90;;;;;;6681576;88;20333;-77
2021/12/06 15:47:49;;;;;;;5.07;2.12;;;4.40;99.90;;;;;;6697444;88;20496;-76
2021/12/06 15:57:51;;;;;;;6.87;3.00;;;4.30;99.90;;;;;;6698766;88;20209;-76
2021/12/06 16:07:58;;;;;;;4.70;2.53;;;4.20;99.90;;;;;;6701219;88;20219;-76
2021/12/06 16:18:06;;;;;;;6.15;3.30;;;4.00;99.90;;;;;;6690970;88;20602;-76
2021/12/06 16:28:06;;;;;;;6.43;2.78;;;3.90;99.90;;;;;;6697687;88;20353;-77
2021/12/06 16:38:13;;;;;;;6.75;3.08;;;4.00;99.90;;;;;;6672476;88;20232;-76
2021/12/06 16:48:14;;;;;;;;;;;4.00;99.90;;;;;;6683494;88;20304;-75
2021/12/06 16:58:18;;;;;;;5.47;2.45;;;3.90;99.90;;;;;;6690730;88;20066;-76
2021/12/06 17:08:27;;;;;;;3.37;1.58;;;3.90;99.90;;;;;;6687013;88;20299;-76
2021/12/06 17:18:36;;;;;;;5.40;2.37;;;3.90;99.90;;;;;;6684059;88;20194;-75
2021/12/06 17:28:41;;;;;;;5.10;2.47;;;3.80;99.90;;;;;;6688536;88;20221;-76
2021/12/06 17:38:44;;;;;;;5.37;2.20;;;3.80;99.90;;;;;;6697567;77;20201;-74
2021/12/06 17:48:44;;;;;;;6.05;2.65;;;3.70;99.90;;;;;;6724846;88;20204;-75
2021/12/06 18:08:54;;;;;;;5.80;2.87;;;3.60;99.90;;;;;;6738769;88;20316;-74
2021/12/06 18:18:55;;;;;;;5.80;3.00;;;3.70;99.90;;;;;;6737401;88;20233;-74
2021/12/06 18:28:56;;;;;;;7.03;3.35;;;3.80;99.90;;;;;;6735257;88;20672;-73
2021/12/06 18:38:59;;;;;;;7.37;4.22;;;3.80;99.90;;;;;;6736849;88;20710;-75
2021/12/06 18:49:00;;;;;;;9.05;4.50;;;3.70;99.90;;;;;;6736449;88;20215;-73
2021/12/06 18:59:02;;;;;;;10.60;4.37;;;3.60;99.90;;;;;;6737199;88;20315;-74
2021/12/06 19:09:05;;;;;;;10.27;5.00;;;3.80;99.90;;;;;;6736488;88;21112;-74
2021/12/06 19:19:06;;;;;;;11.93;5.50;;;3.70;99.90;;;;;;6742918;88;20247;-75
2021/12/06 19:29:07;;;;;;;12.13;4.93;;;3.70;99.90;;;;;;6741637;88;20238;-74
2021/12/06 19:39:08;;;;;;;10.25;5.15;;;3.70;99.90;;;;;;6745577;88;20481;-75
2021/12/06 19:49:08;;;;;;;9.02;3.22;;;3.60;99.90;;;;;;6737809;88;20211;-75
2021/12/06 19:59:10;;;;;;;11.85;4.53;;;3.60;99.90;;;;;;6750161;88;20226;-73
2021/12/06 20:09:11;;;;;;;9.18;4.45;;;3.60;99.90;;;;;;6756171;88;20620;-75
2021/12/06 20:19:12;;;;;;;12.10;5.12;;;3.60;99.90;;;;;;6750479;88;20234;-74
2021/12/06 20:29:14;;;;;;;8.15;3.62;;;3.60;99.90;;;;;;6742514;88;20200;-75
2021/12/06 20:39:15;;;;;;;10.95;4.97;;;3.60;99.90;;;;;;6742541;88;20648;-74
2021/12/06 20:49:16;;;;;;;10.00;4.22;;;3.60;99.90;;;;;;6749141;88;20205;-74
2021/12/06 20:59:19;;;;;;;8.95;3.37;;;3.60;99.90;;;;;;6754051;88;20192;-74
2021/12/06 21:09:22;;;;;;;8.43;3.58;;;3.60;99.90;;;;;;6745091;88;20269;-75
2021/12/06 21:19:22;;;;;;;9.32;4.40;;;3.40;99.90;;;;;;6740169;88;20234;-74
2021/12/06 21:29:23;;;;;;;11.32;6.18;;;3.30;99.90;;;;;;6749119;88;20220;-75
2021/12/06 21:39:23;;;;;;;9.82;4.70;;;3.20;99.90;;;;;;6747653;88;20197;-76
2021/12/06 21:49:24;;;;;;;9.10;4.72;;;3.10;99.90;;;;;;6747516;88;20201;-75
2021/12/06 21:59:26;;;;;;;9.93;4.78;;;3.10;99.90;;;;;;6747880;88;20539;-75
2021/12/06 22:09:27;;;;;;;7.10;2.75;;;2.90;99.90;;;;;;6744774;88;20644;-76
2021/12/06 22:19:30;;;;;;;8.27;4.20;;;2.90;99.90;;;;;;6743712;88;20197;-76
2021/12/06 22:29:31;;;;;;;7.82;4.35;;;2.60;99.90;;;;;;6743764;88;20828;-75
2021/12/06 22:39:31;;;;;;;6.60;3.53;;;2.50;99.90;;;;;;6745660;88;20201;-74
2021/12/06 22:49:32;;;;;;;8.73;4.53;;;2.50;99.90;;;;;;6747675;88;20257;-74
2021/12/06 22:59:33;;;;;;;4.82;2.92;;;2.40;99.90;;;;;;6747413;88;20199;-77
2021/12/06 23:09:34;;;;;;;4.85;2.75;;;2.40;99.90;;;;;;6748604;88;20625;-75
2021/12/06 23:19:35;;;;;;;10.02;5.05;;;2.40;99.90;;;;;;6748219;88;20307;-74
2021/12/06 23:29:36;;;;;;;8.63;4.55;;;2.50;99.90;;;;;;6747420;88;20215;-74
2021/12/06 23:49:55;;;;;;;7.72;3.30;;;2.60;99.90;;;;;;6716224;88;20588;-77
2021/12/06 23:59:56;;;;;;;3.45;1.87;;;2.70;99.90;;;;;;6701775;88;20216;-77
